Time;durP1;ratioP1;P1;durP2;ratioP2;P2;SDS_P1;SDS_P2;PMS_P1;PMS_P2;Temp;Humidity;BMP_temperature;BMP_pressure;BME280_temperature;BME280_humidity;BME280_pressure;Samples;Min_cycle;Max_cycle;Signal;HPM_P1;HPM_P2
2024/01/27 00:01:22;;;;;;;93.95;59.47;;;;;;;;;;6237515;28;24435;-74
2024/01/27 00:04:23;;;;;;;89.82;56.20;;;;;;;;;;6238885;28;24497;-73
2024/01/27 00:07:27;;;;;;;92.22;56.70;;;;;;;;;;6268361;28;24817;-73
2024/01/27 00:10:29;;;;;;;90.35;56.58;;;;;;;;;;6243837;28;24630;-74
2024/01/27 00:13:32;;;;;;;116.70;71.60;;;;;;;;;;6242823;28;24646;-77
2024/01/27 00:16:33;;;;;;;228.40;124.55;;;;;;;;;;6239979;28;24872;-75
2024/01/27 00:19:35;;;;;;;193.33;104.23;;;;;;;;;;6246582;28;24438;-75
2024/01/27 00:22:37;;;;;;;132.87;77.47;;;;;;;;;;6245061;28;24408;-74
2024/01/27 00:25:38;;;;;;;138.70;84.57;;;;;;;;;;6251204;28;24704;-74
2024/01/27 00:28:41;;;;;;;168.15;102.13;;;;;;;;;;6245578;28;24622;-78
2024/01/27 00:31:43;;;;;;;135.13;85.43;;;;;;;;;;6245628;28;24432;-77
2024/01/27 00:34:45;;;;;;;189.60;111.13;;;;;;;;;;6244059;28;24564;-77
2024/01/27 00:37:46;;;;;;;124.10;79.50;;;;;;;;;;6243365;28;24428;-78
2024/01/27 00:40:48;;;;;;;106.72;72.05;;;;;;;;;;6240771;28;24806;-77
2024/01/27 00:43:51;;;;;;;107.17;70.03;;;;;;;;;;6244628;28;24419;-78
2024/01/27 00:46:52;;;;;;;101.03;66.13;;;;;;;;;;6244493;28;24462;-78
2024/01/27 00:49:54;;;;;;;102.70;67.47;;;;;;;;;;6244404;28;24416;-78
2024/01/27 00:52:56;;;;;;;102.15;67.13;;;;;;;;;;6243946;28;24424;-78
2024/01/27 00:55:57;;;;;;;101.20;67.40;;;;;;;;;;6248370;28;24637;-77
2024/01/27 00:59:00;;;;;;;104.60;69.18;;;;;;;;;;6246933;28;24412;-77
2024/01/27 01:02:02;;;;;;;103.33;67.23;;;;;;;;;;6247101;28;24902;-76
2024/01/27 01:05:05;;;;;;;104.03;67.57;;;;;;;;;;6275705;28;24439;-78
2024/01/27 01:08:07;;;;;;;98.68;64.57;;;;;;;;;;6244727;28;24478;-78
2024/01/27 01:11:09;;;;;;;100.70;65.60;;;;;;;;;;6244847;28;24840;-78
2024/01/27 01:14:12;;;;;;;97.63;63.92;;;;;;;;;;6242540;28;24626;-77
2024/01/27 01:17:13;;;;;;;100.65;64.20;;;;;;;;;;6246721;28;24439;-77
2024/01/27 01:20:15;;;;;;;100.15;64.72;;;;;;;;;;6243463;28;24483;-77
2024/01/27 01:23:17;;;;;;;101.82;65.75;;;;;;;;;;6251189;28;24706;-76
2024/01/27 01:26:18;;;;;;;101.82;65.60;;;;;;;;;;6253187;28;24629;-78
2024/01/27 01:29:22;;;;;;;103.28;67.32;;;;;;;;;;6245004;28;24412;-78
2024/01/27 01:32:23;;;;;;;102.55;65.03;;;;;;;;;;6242290;28;24424;-78
2024/01/27 01:35:25;;;;;;;100.10;65.22;;;;;;;;;;6244367;28;24495;-78
2024/01/27 01:38:27;;;;;;;101.72;67.57;;;;;;;;;;6240571;28;24483;-77
2024/01/27 01:41:28;;;;;;;104.03;65.97;;;;;;;;;;6242878;28;24435;-78
2024/01/27 01:44:32;;;;;;;96.10;64.97;;;;;;;;;;6246354;28;24514;-77
2024/01/27 01:47:33;;;;;;;99.38;63.92;;;;;;;;;;6240572;28;24626;-74
2024/01/27 01:50:35;;;;;;;104.72;67.25;;;;;;;;;;6242397;28;24697;-72
2024/01/27 01:53:36;;;;;;;104.28;68.78;;;;;;;;;;6240892;28;24424;-73
2024/01/27 01:56:38;;;;;;;102.47;65.72;;;;;;;;;;6242000;28;24659;-74
2024/01/27 01:59:41;;;;;;;103.80;66.40;;;;;;;;;;6242593;28;24431;-74
2024/01/27 02:02:44;;;;;;;104.20;64.63;;;;;;;;;;6243126;28;24805;-74
2024/01/27 02:05:45;;;;;;;100.95;66.35;;;;;;;;;;6278536;28;24432;-74
2024/01/27 02:08:47;;;;;;;102.60;65.03;;;;;;;;;;6242415;28;24423;-75
2024/01/27 02:11:48;;;;;;;98.18;63.45;;;;;;;;;;6245754;28;24424;-74
2024/01/27 02:14:51;;;;;;;94.78;62.97;;;;;;;;;;6243796;28;24535;-75
2024/01/27 02:17:53;;;;;;;89.63;59.72;;;;;;;;;;6241893;28;24816;-72
2024/01/27 02:20:54;;;;;;;91.32;59.88;;;;;;;;;;6277595;28;24434;-75
2024/01/27 02:23:56;;;;;;;88.18;59.40;;;;;;;;;;6244995;28;24431;-74
2024/01/27 02:26:59;;;;;;;88.50;58.65;;;;;;;;;;6242096;28;24961;-74
2024/01/27 02:30:01;;;;;;;86.22;57.00;;;;;;;;;;6244178;28;24426;-74
2024/01/27 02:33:02;;;;;;;87.40;57.22;;;;;;;;;;6241250;28;24448;-74
2024/01/27 02:36:04;;;;;;;84.03;56.28;;;;;;;;;;6243089;28;24483;-74
2024/01/27 02:39:06;;;;;;;89.80;57.83;;;;;;;;;;6241626;28;24852;-74
2024/01/27 02:42:09;;;;;;;86.32;56.20;;;;;;;;;;6240561;28;24426;-74
2024/01/27 02:45:10;;;;;;;86.57;56.53;;;;;;;;;;6239879;28;24428;-74
2024/01/27 02:48:13;;;;;;;91.05;58.90;;;;;;;;;;6245964;28;24681;-74
2024/01/27 02:51:19;;;;;;;85.72;55.55;;;;;;;;;;6244848;28;24666;-76
2024/01/27 02:54:21;;;;;;;84.07;54.83;;;;;;;;;;6242814;28;24742;-74
2024/01/27 02:57:24;;;;;;;82.95;55.10;;;;;;;;;;6244246;28;24475;-74
2024/01/27 03:00:25;;;;;;;84.60;55.38;;;;;;;;;;6241323;28;24427;-75
2024/01/27 03:03:28;;;;;;;84.85;53.80;;;;;;;;;;6237441;28;24434;-75
2024/01/27 03:06:31;;;;;;;83.53;53.50;;;;;;;;;;6242863;28;24697;-75
2024/01/27 03:09:33;;;;;;;78.78;52.58;;;;;;;;;;6243618;28;24421;-74
2024/01/27 03:12:36;;;;;;;81.07;53.40;;;;;;;;;;6244889;28;24434;-74
2024/01/27 03:15:38;;;;;;;81.78;53.33;;;;;;;;;;6242654;28;25129;-74
2024/01/27 03:18:40;;;;;;;82.17;53.80;;;;;;;;;;6244696;28;24483;-74
2024/01/27 03:21:42;;;;;;;83.43;54.43;;;;;;;;;;6241833;28;24509;-73
2024/01/27 03:24:45;;;;;;;83.60;54.28;;;;;;;;;;6271206;28;24432;-73
2024/01/27 03:27:50;;;;;;;79.63;52.58;;;;;;;;;;6242057;28;24424;-74
2024/01/27 03:30:52;;;;;;;79.73;52.97;;;;;;;;;;6241801;28;24855;-74
2024/01/27 03:33:54;;;;;;;78.70;51.42;;;;;;;;;;6240601;28;24470;-73
2024/01/27 03:36:55;;;;;;;79.40;52.80;;;;;;;;;;6238058;28;24477;-74
2024/01/27 03:39:57;;;;;;;77.70;51.27;;;;;;;;;;6268390;28;24417;-74
2024/01/27 03:43:00;;;;;;;77.47;51.03;;;;;;;;;;6264277;28;24895;-77
2024/01/27 03:46:02;;;;;;;75.75;51.33;;;;;;;;;;6265213;28;24451;-74
2024/01/27 03:49:04;;;;;;;74.80;50.42;;;;;;;;;;6264192;28;24737;-73
2024/01/27 03:52:06;;;;;;;75.20;49.75;;;;;;;;;;6262194;28;24451;-74
2024/01/27 03:55:08;;;;;;;76.17;50.77;;;;;;;;;;6263051;28;24450;-74
2024/01/27 03:58:11;;;;;;;77.00;50.70;;;;;;;;;;6263973;28;24445;-73
2024/01/27 04:01:13;;;;;;;76.18;50.80;;;;;;;;;;6262381;28;24489;-73
2024/01/27 04:04:14;;;;;;;73.32;49.22;;;;;;;;;;6263415;28;24875;-73
2024/01/27 04:07:16;;;;;;;72.32;49.20;;;;;;;;;;6263186;28;24451;-73
2024/01/27 04:10:18;;;;;;;69.78;47.30;;;;;;;;;;6265212;28;24430;-73
2024/01/27 04:13:21;;;;;;;72.93;49.00;;;;;;;;;;6265822;28;24486;-73
2024/01/27 04:16:22;;;;;;;74.35;49.85;;;;;;;;;;6264937;28;24431;-73
2024/01/27 04:19:24;;;;;;;72.47;50.15;;;;;;;;;;6268241;28;24431;-73
2024/01/27 04:22:25;;;;;;;72.90;48.80;;;;;;;;;;6268926;28;24426;-73
2024/01/27 04:25:27;;;;;;;71.18;49.03;;;;;;;;;;6270092;28;24502;-73
2024/01/27 04:28:31;;;;;;;70.55;48.47;;;;;;;;;;6269646;28;24426;-74
2024/01/27 04:31:33;;;;;;;66.45;46.65;;;;;;;;;;6300418;28;24661;-74
2024/01/27 04:34:34;;;;;;;67.47;46.27;;;;;;;;;;6269941;28;24408;-74
2024/01/27 04:37:36;;;;;;;65.13;44.72;;;;;;;;;;6269370;28;24483;-74
2024/01/27 04:40:37;;;;;;;65.00;45.15;;;;;;;;;;6268003;28;24495;-72
2024/01/27 04:43:41;;;;;;;62.47;44.95;;;;;;;;;;6268060;28;24454;-73
2024/01/27 04:46:42;;;;;;;65.28;45.45;;;;;;;;;;6267618;28;24821;-73
2024/01/27 04:49:43;;;;;;;66.07;45.05;;;;;;;;;;6266398;28;24419;-72
2024/01/27 04:52:45;;;;;;;66.93;45.10;;;;;;;;;;6269780;28;24420;-73
2024/01/27 04:55:47;;;;;;;68.03;46.15;;;;;;;;;;6268176;28;24431;-73
2024/01/27 04:58:50;;;;;;;69.53;46.53;;;;;;;;;;6268376;28;24483;-73
2024/01/27 05:01:52;;;;;;;65.97;44.38;;;;;;;;;;6267962;28;24411;-73
2024/01/27 05:04:53;;;;;;;64.38;45.13;;;;;;;;;;6267569;28;24427;-73
2024/01/27 05:07:55;;;;;;;63.40;43.22;;;;;;;;;;6268922;28;24422;-74
2024/01/27 05:10:56;;;;;;;63.80;44.00;;;;;;;;;;6271067;28;24816;-74
2024/01/27 05:13:59;;;;;;;67.10;45.15;;;;;;;;;;6271533;28;24843;-73
2024/01/27 05:17:02;;;;;;;62.88;43.60;;;;;;;;;;6268034;28;24511;-72
2024/01/27 05:20:04;;;;;;;64.60;43.20;;;;;;;;;;6263899;28;24482;-73
2024/01/27 05:23:05;;;;;;;66.20;43.97;;;;;;;;;;6270846;28;24420;-73
2024/01/27 05:26:07;;;;;;;67.55;44.97;;;;;;;;;;6266963;28;24843;-73
2024/01/27 05:29:10;;;;;;;73.38;46.55;;;;;;;;;;6264800;28;24419;-74
2024/01/27 05:32:14;;;;;;;75.87;48.10;;;;;;;;;;6271684;28;24420;-74
2024/01/27 05:35:15;;;;;;;76.80;47.78;;;;;;;;;;6268738;28;24481;-73
2024/01/27 05:38:17;;;;;;;80.22;49.00;;;;;;;;;;6268101;28;24416;-73
2024/01/27 05:41:18;;;;;;;86.78;50.75;;;;;;;;;;6268817;28;24503;-74
2024/01/27 05:44:21;;;;;;;82.55;49.85;;;;;;;;;;6268189;28;24431;-74
2024/01/27 05:47:23;;;;;;;85.88;52.03;;;;;;;;;;6266235;28;24423;-74
2024/01/27 05:50:24;;;;;;;93.00;51.65;;;;;;;;;;6299159;28;24461;-74
2024/01/27 05:53:26;;;;;;;84.10;50.20;;;;;;;;;;6271421;28;24461;-74
2024/01/27 05:56:28;;;;;;;89.63;52.40;;;;;;;;;;6269024;28;24412;-73
2024/01/27 05:59:31;;;;;;;87.73;51.67;;;;;;;;;;6266921;28;24808;-73
2024/01/27 06:02:34;;;;;;;88.32;52.08;;;;;;;;;;6268835;28;24470;-73
2024/01/27 06:05:38;;;;;;;84.22;49.75;;;;;;;;;;6266016;28;25061;-74
2024/01/27 06:08:39;;;;;;;86.77;50.60;;;;;;;;;;6267531;28;24427;-74
2024/01/27 06:11:41;;;;;;;83.70;50.22;;;;;;;;;;6265101;28;24429;-73
2024/01/27 06:14:44;;;;;;;86.25;51.13;;;;;;;;;;6267883;28;24477;-73
2024/01/27 06:17:48;;;;;;;87.25;51.72;;;;;;;;;;6265475;28;24855;-73
2024/01/27 06:20:51;;;;;;;91.13;52.50;;;;;;;;;;6265930;28;24461;-73
2024/01/27 06:23:53;;;;;;;89.35;52.80;;;;;;;;;;6269326;28;24469;-74
2024/01/27 06:26:54;;;;;;;90.35;53.38;;;;;;;;;;6270889;28;24811;-79
2024/01/27 06:29:57;;;;;;;100.43;56.40;;;;;;;;;;6269093;28;24831;-79
2024/01/27 06:32:59;;;;;;;102.95;57.45;;;;;;;;;;6268111;28;24816;-79
2024/01/27 06:36:00;;;;;;;93.45;54.08;;;;;;;;;;6260819;28;24512;-78
2024/01/27 06:39:02;;;;;;;98.90;54.90;;;;;;;;;;6267313;28;24828;-78
2024/01/27 06:42:04;;;;;;;93.32;54.42;;;;;;;;;;6265429;28;24881;-79
2024/01/27 06:45:08;;;;;;;93.40;54.78;;;;;;;;;;6265485;28;24619;-78
2024/01/27 06:48:10;;;;;;;93.70;54.80;;;;;;;;;;6269350;28;24871;-79
2024/01/27 06:51:11;;;;;;;91.72;54.10;;;;;;;;;;6266908;28;24433;-79
2024/01/27 06:54:13;;;;;;;99.35;56.55;;;;;;;;;;6268951;28;24489;-77
2024/01/27 06:57:21;;;;;;;90.95;54.78;;;;;;;;;;6267927;28;24461;-76
2024/01/27 07:00:24;;;;;;;92.20;53.90;;;;;;;;;;6267570;28;24423;-77
2024/01/27 07:03:25;;;;;;;96.53;56.53;;;;;;;;;;6268068;28;24415;-78
2024/01/27 07:06:27;;;;;;;94.32;55.08;;;;;;;;;;6267938;28;24451;-79
2024/01/27 07:09:28;;;;;;;95.35;55.38;;;;;;;;;;6268113;28;24422;-80
2024/01/27 07:12:31;;;;;;;94.63;55.08;;;;;;;;;;6265382;28;24427;-77
2024/01/27 07:15:36;;;;;;;94.30;56.53;;;;;;;;;;6263818;28;24699;-77
2024/01/27 07:18:38;;;;;;;92.27;55.77;;;;;;;;;;6267130;28;24878;-77
2024/01/27 07:21:39;;;;;;;92.83;54.33;;;;;;;;;;6267890;28;24426;-76
2024/01/27 07:24:41;;;;;;;93.10;56.33;;;;;;;;;;6266344;28;24419;-77
2024/01/27 07:27:45;;;;;;;92.30;54.28;;;;;;;;;;6261378;28;24848;-77
2024/01/27 07:30:48;;;;;;;94.70;55.33;;;;;;;;;;6293269;28;24523;-77
2024/01/27 07:33:50;;;;;;;86.03;52.38;;;;;;;;;;6260899;28;24431;-77
2024/01/27 07:36:51;;;;;;;86.53;52.67;;;;;;;;;;6262900;28;24665;-78
2024/01/27 07:39:53;;;;;;;87.25;52.17;;;;;;;;;;6262144;28;24470;-76
2024/01/27 07:42:55;;;;;;;85.25;51.42;;;;;;;;;;6263055;28;24435;-78
2024/01/27 07:45:58;;;;;;;87.50;52.25;;;;;;;;;;6265738;28;25128;-78
2024/01/27 07:48:59;;;;;;;83.05;50.60;;;;;;;;;;6263366;28;24465;-76
2024/01/27 07:52:01;;;;;;;80.55;48.38;;;;;;;;;;6262454;28;24444;-78
2024/01/27 07:55:03;;;;;;;83.97;49.47;;;;;;;;;;6263451;28;24442;-76
2024/01/27 07:58:05;;;;;;;85.33;50.17;;;;;;;;;;6265556;28;24446;-76
2024/01/27 08:01:08;;;;;;;83.32;50.67;;;;;;;;;;6263093;28;24438;-77
2024/01/27 08:04:10;;;;;;;79.53;48.40;;;;;;;;;;6264379;28;24424;-78
2024/01/27 08:07:14;;;;;;;76.68;46.75;;;;;;;;;;6257681;28;24831;-76
2024/01/27 08:10:16;;;;;;;72.07;43.90;;;;;;;;;;6265530;28;24435;-76
2024/01/27 08:13:17;;;;;;;71.18;44.17;;;;;;;;;;6265174;28;24431;-78
2024/01/27 08:16:21;;;;;;;68.35;43.03;;;;;;;;;;6262295;28;24419;-78
2024/01/27 08:19:23;;;;;;;66.40;40.90;;;;;;;;;;6266900;28;24434;-77
2024/01/27 08:22:24;;;;;;;61.95;39.78;;;;;;;;;;6266010;28;24842;-78
2024/01/27 08:25:26;;;;;;;58.40;38.33;;;;;;;;;;6266780;28;24428;-77
2024/01/27 08:28:27;;;;;;;59.25;38.08;;;;;;;;;;6266696;28;24541;-78
2024/01/27 08:31:30;;;;;;;58.97;37.35;;;;;;;;;;6268047;28;24419;-77
2024/01/27 08:34:32;;;;;;;59.10;36.83;;;;;;;;;;6263100;28;24427;-78
2024/01/27 08:37:38;;;;;;;56.53;36.60;;;;;;;;;;6262844;28;24921;-77
2024/01/27 08:40:40;;;;;;;58.38;36.30;;;;;;;;;;6262290;28;24443;-77
2024/01/27 08:43:41;;;;;;;53.17;34.53;;;;;;;;;;6262414;28;24411;-77
2024/01/27 08:46:44;;;;;;;56.67;35.45;;;;;;;;;;6264099;28;24815;-73
2024/01/27 08:49:45;;;;;;;60.15;37.30;;;;;;;;;;6264270;28;24439;-73
2024/01/27 08:52:48;;;;;;;51.90;35.03;;;;;;;;;;6266694;28;24430;-74
2024/01/27 08:55:49;;;;;;;49.33;33.47;;;;;;;;;;6265571;28;24656;-74
2024/01/27 08:58:52;;;;;;;57.28;36.08;;;;;;;;;;6262977;28;24420;-73
2024/01/27 09:01:55;;;;;;;52.65;35.05;;;;;;;;;;6260619;28;24418;-73
2024/01/27 09:04:57;;;;;;;50.70;33.47;;;;;;;;;;6270261;28;24520;-73
2024/01/27 09:07:58;;;;;;;50.72;32.97;;;;;;;;;;6267961;28;24427;-74
2024/01/27 09:11:02;;;;;;;52.42;34.13;;;;;;;;;;6269297;28;24697;-74
2024/01/27 09:14:05;;;;;;;53.97;34.85;;;;;;;;;;6267403;28;24427;-74
2024/01/27 09:17:08;;;;;;;49.28;32.85;;;;;;;;;;6266979;28;24519;-74
2024/01/27 09:20:10;;;;;;;51.42;33.85;;;;;;;;;;6269731;28;24427;-74
2024/01/27 09:23:11;;;;;;;48.73;32.80;;;;;;;;;;6267048;28;24415;-74
2024/01/27 09:26:13;;;;;;;47.13;31.20;;;;;;;;;;6267654;28;24424;-74
2024/01/27 09:29:15;;;;;;;47.60;31.60;;;;;;;;;;6266634;28;24562;-74
2024/01/27 09:32:18;;;;;;;45.80;31.10;;;;;;;;;;6266804;28;24515;-75
2024/01/27 09:35:20;;;;;;;52.72;35.10;;;;;;;;;;6266864;28;24427;-74
2024/01/27 09:38:21;;;;;;;47.50;31.85;;;;;;;;;;6264188;28;24424;-73
2024/01/27 09:41:23;;;;;;;47.47;33.00;;;;;;;;;;6264303;28;24420;-73
2024/01/27 09:44:25;;;;;;;43.17;31.05;;;;;;;;;;6265961;28;24430;-74
2024/01/27 09:47:28;;;;;;;44.90;32.10;;;;;;;;;;6267903;28;24438;-74
2024/01/27 09:50:30;;;;;;;55.13;37.72;;;;;;;;;;6266403;28;24813;-74
2024/01/27 09:53:32;;;;;;;52.75;36.30;;;;;;;;;;6264673;28;24926;-75
2024/01/27 09:56:33;;;;;;;53.00;36.03;;;;;;;;;;6266421;28;24446;-74
2024/01/27 09:59:36;;;;;;;52.55;36.38;;;;;;;;;;6263456;28;24435;-74
2024/01/27 10:02:39;;;;;;;58.58;38.53;;;;;;;;;;6263362;28;24420;-74
2024/01/27 10:05:42;;;;;;;56.17;37.90;;;;;;;;;;6262518;28;24435;-74
2024/01/27 10:08:48;;;;;;;54.95;36.85;;;;;;;;;;6268955;28;24462;-74
2024/01/27 10:11:50;;;;;;;50.63;35.55;;;;;;;;;;6267725;28;24427;-74
2024/01/27 10:14:52;;;;;;;50.63;36.47;;;;;;;;;;6267105;28;24443;-74
2024/01/27 10:18:04;;;;;;;52.55;36.17;;;;;;;;;;6265534;28;24430;-75
2024/01/27 10:21:13;;;;;;;49.83;35.97;;;;;;;;;;6268539;28;24431;-74
2024/01/27 10:24:15;;;;;;;50.50;35.53;;;;;;;;;;6266544;28;24468;-74
2024/01/27 10:27:18;;;;;;;52.58;37.38;;;;;;;;;;6264315;28;24699;-74
2024/01/27 10:30:20;;;;;;;50.75;36.88;;;;;;;;;;6265322;28;24898;-74
2024/01/27 10:33:23;;;;;;;47.95;36.42;;;;;;;;;;6264288;28;24470;-74
2024/01/27 10:36:25;;;;;;;47.65;36.85;;;;;;;;;;6261592;28;24435;-73
2024/01/27 10:39:28;;;;;;;50.05;37.47;;;;;;;;;;6262974;28;24558;-74
2024/01/27 10:42:31;;;;;;;48.47;37.75;;;;;;;;;;6266252;28;24509;-74
2024/01/27 10:45:35;;;;;;;45.45;35.00;;;;;;;;;;6262805;28;24435;-72
2024/01/27 10:48:39;;;;;;;45.47;35.55;;;;;;;;;;6263958;28;24459;-73
2024/01/27 10:51:43;;;;;;;48.47;36.92;;;;;;;;;;6272314;28;24829;-73
2024/01/27 10:54:46;;;;;;;45.00;35.75;;;;;;;;;;6264977;28;24768;-73
2024/01/27 10:57:48;;;;;;;47.45;35.60;;;;;;;;;;6265385;28;24842;-74
2024/01/27 11:00:51;;;;;;;45.75;35.80;;;;;;;;;;6263063;28;24424;-74
2024/01/27 11:03:55;;;;;;;45.78;35.17;;;;;;;;;;6262809;28;24420;-73
2024/01/27 11:06:57;;;;;;;47.80;35.75;;;;;;;;;;6261192;28;24420;-73
2024/01/27 11:09:59;;;;;;;46.80;35.97;;;;;;;;;;6263314;28;24879;-74
2024/01/27 11:13:01;;;;;;;43.85;35.58;;;;;;;;;;6265553;28;24500;-74
2024/01/27 11:16:03;;;;;;;47.20;36.35;;;;;;;;;;6264925;28;24494;-74
2024/01/27 11:19:05;;;;;;;48.08;35.42;;;;;;;;;;6261103;28;24867;-74
2024/01/27 11:22:07;;;;;;;47.17;36.33;;;;;;;;;;6260561;28;24695;-74
2024/01/27 11:25:15;;;;;;;44.72;35.13;;;;;;;;;;6263329;28;24447;-74
2024/01/27 11:28:20;;;;;;;47.75;35.15;;;;;;;;;;6261205;28;24461;-75
2024/01/27 11:31:21;;;;;;;43.60;33.97;;;;;;;;;;6261660;28;24529;-72
2024/01/27 11:34:24;;;;;;;44.40;34.03;;;;;;;;;;6265943;28;24423;-73
2024/01/27 11:37:31;;;;;;;44.58;33.88;;;;;;;;;;6263393;28;24538;-75
2024/01/27 11:40:33;;;;;;;42.63;33.28;;;;;;;;;;6270693;28;24505;-74
2024/01/27 11:43:34;;;;;;;41.78;32.88;;;;;;;;;;6274564;28;24443;-74
2024/01/27 11:46:37;;;;;;;45.83;35.65;;;;;;;;;;6272309;28;24424;-74
2024/01/27 11:49:40;;;;;;;43.70;33.05;;;;;;;;;;6270279;28;24664;-73
2024/01/27 11:52:41;;;;;;;42.13;32.92;;;;;;;;;;6272563;28;24419;-73
2024/01/27 11:55:43;;;;;;;40.53;31.63;;;;;;;;;;6273082;28;24411;-73
2024/01/27 11:58:48;;;;;;;42.60;33.63;;;;;;;;;;6269215;28;24537;-73
2024/01/27 12:01:50;;;;;;;39.78;31.05;;;;;;;;;;6267703;28;24817;-73
2024/01/27 12:04:53;;;;;;;40.03;31.58;;;;;;;;;;6272332;28;24435;-73
2024/01/27 12:07:55;;;;;;;41.15;31.67;;;;;;;;;;6266055;28;24808;-73
2024/01/27 12:10:57;;;;;;;41.67;32.42;;;;;;;;;;6265881;28;24427;-73
2024/01/27 12:13:59;;;;;;;44.20;34.90;;;;;;;;;;6274300;28;24424;-73
2024/01/27 12:17:01;;;;;;;41.85;32.85;;;;;;;;;;6267551;28;24435;-73
2024/01/27 12:20:15;;;;;;;40.40;32.03;;;;;;;;;;6266860;28;24412;-73
2024/01/27 12:23:16;;;;;;;40.90;32.05;;;;;;;;;;6299187;28;24424;-73
2024/01/27 12:26:18;;;;;;;40.03;31.73;;;;;;;;;;6274982;28;24423;-73
2024/01/27 12:29:20;;;;;;;42.27;33.80;;;;;;;;;;6270634;28;24582;-73
2024/01/27 12:32:22;;;;;;;39.58;31.23;;;;;;;;;;6276487;28;24438;-74
2024/01/27 12:35:28;;;;;;;38.00;31.42;;;;;;;;;;6261917;28;24420;-73
2024/01/27 12:38:30;;;;;;;39.65;31.30;;;;;;;;;;6266041;28;24506;-73
2024/01/27 12:41:33;;;;;;;36.22;30.48;;;;;;;;;;6274904;28;24477;-73
2024/01/27 12:44:35;;;;;;;36.87;30.33;;;;;;;;;;6268132;28;24575;-73
2024/01/27 12:47:36;;;;;;;37.30;30.08;;;;;;;;;;6270865;28;24644;-72
2024/01/27 12:50:39;;;;;;;36.90;30.27;;;;;;;;;;6271666;28;24911;-73
2024/01/27 12:53:43;;;;;;;36.17;29.50;;;;;;;;;;6269636;28;25106;-74
2024/01/27 12:56:45;;;;;;;33.95;29.45;;;;;;;;;;6269041;28;25098;-75
2024/01/27 12:59:47;;;;;;;35.95;29.48;;;;;;;;;;6287312;28;24423;-74
2024/01/27 13:02:49;;;;;;;34.63;29.15;;;;;;;;;;6272696;28;24423;-76
2024/01/27 13:05:52;;;;;;;35.40;29.98;;;;;;;;;;6266392;28;24462;-74
2024/01/27 13:08:54;;;;;;;35.38;29.27;;;;;;;;;;6269306;28;24473;-74
2024/01/27 13:11:55;;;;;;;33.73;27.83;;;;;;;;;;6270795;28;24427;-74
2024/01/27 13:14:57;;;;;;;31.90;27.00;;;;;;;;;;6268526;28;24709;-74
2024/01/27 13:17:58;;;;;;;34.50;27.70;;;;;;;;;;6266979;28;24431;-74
2024/01/27 13:21:01;;;;;;;32.67;27.48;;;;;;;;;;6269986;28;24855;-74
2024/01/27 13:24:03;;;;;;;35.45;28.00;;;;;;;;;;6269096;28;27726;-74
2024/01/27 13:27:05;;;;;;;32.22;26.42;;;;;;;;;;6273427;28;24423;-73
2024/01/27 13:30:07;;;;;;;33.25;27.60;;;;;;;;;;6269801;28;24481;-73
2024/01/27 13:33:09;;;;;;;31.25;25.88;;;;;;;;;;6267599;28;24482;-73
2024/01/27 13:36:12;;;;;;;31.08;26.55;;;;;;;;;;6301421;28;24839;-74
2024/01/27 13:39:13;;;;;;;34.00;28.90;;;;;;;;;;6267956;28;24485;-73
2024/01/27 13:42:15;;;;;;;34.38;28.10;;;;;;;;;;6267627;28;24909;-74
2024/01/27 13:45:16;;;;;;;31.55;28.00;;;;;;;;;;6265232;28;24427;-74
2024/01/27 13:48:18;;;;;;;31.95;27.20;;;;;;;;;;6262981;28;24677;-74
2024/01/27 13:51:21;;;;;;;33.67;28.13;;;;;;;;;;6269708;28;24431;-74
2024/01/27 13:54:25;;;;;;;32.17;26.17;;;;;;;;;;6264761;28;24521;-75
2024/01/27 13:57:28;;;;;;;30.02;26.48;;;;;;;;;;6265139;28;24431;-75
2024/01/27 14:00:30;;;;;;;30.92;27.08;;;;;;;;;;6267054;28;24420;-75
2024/01/27 14:03:32;;;;;;;28.52;25.42;;;;;;;;;;6266358;28;24435;-74
2024/01/27 14:06:35;;;;;;;27.80;24.50;;;;;;;;;;6264734;28;24494;-74
2024/01/27 14:09:37;;;;;;;28.48;24.35;;;;;;;;;;6266316;28;24443;-73
2024/01/27 14:12:39;;;;;;;27.45;24.33;;;;;;;;;;6265588;28;24420;-74
2024/01/27 14:15:40;;;;;;;27.63;24.63;;;;;;;;;;6265323;28;24808;-73
2024/01/27 14:18:42;;;;;;;29.30;25.45;;;;;;;;;;6270419;28;24898;-74
2024/01/27 14:21:45;;;;;;;28.10;24.10;;;;;;;;;;6264510;28;24423;-73
2024/01/27 14:24:47;;;;;;;30.42;26.48;;;;;;;;;;6262870;28;24835;-73
2024/01/27 14:27:49;;;;;;;34.38;27.92;;;;;;;;;;6265231;28;24432;-72
2024/01/27 14:30:51;;;;;;;30.88;27.00;;;;;;;;;;6264121;28;24432;-74
2024/01/27 14:33:52;;;;;;;33.53;26.70;;;;;;;;;;6267850;28;24450;-74
2024/01/27 14:36:55;;;;;;;32.75;27.20;;;;;;;;;;6264469;28;24435;-74
2024/01/27 14:39:57;;;;;;;32.53;26.20;;;;;;;;;;6298679;28;24497;-74
2024/01/27 14:42:58;;;;;;;28.33;24.75;;;;;;;;;;6264718;28;24431;-74
2024/01/27 14:46:00;;;;;;;28.25;24.83;;;;;;;;;;6265791;28;24442;-74
2024/01/27 14:49:01;;;;;;;29.50;25.23;;;;;;;;;;6266141;28;24717;-74
2024/01/27 14:52:05;;;;;;;29.50;25.52;;;;;;;;;;6266015;28;24432;-74
2024/01/27 14:55:08;;;;;;;29.88;24.90;;;;;;;;;;6263026;28;24441;-75
2024/01/27 14:58:09;;;;;;;32.50;26.80;;;;;;;;;;6265655;28;24788;-74
2024/01/27 15:01:12;;;;;;;32.85;28.38;;;;;;;;;;6267168;28;24431;-74
2024/01/27 15:04:15;;;;;;;33.88;27.92;;;;;;;;;;6260221;28;24454;-74
2024/01/27 15:07:18;;;;;;;33.13;27.55;;;;;;;;;;6288993;28;24438;-74
2024/01/27 15:10:21;;;;;;;32.90;27.02;;;;;;;;;;6264515;28;25040;-72
2024/01/27 15:13:23;;;;;;;32.28;26.98;;;;;;;;;;6263825;28;24918;-73
2024/01/27 15:16:26;;;;;;;35.37;28.97;;;;;;;;;;6269056;28;24780;-73
2024/01/27 15:19:27;;;;;;;36.73;30.27;;;;;;;;;;6263667;28;24431;-73
2024/01/27 15:22:31;;;;;;;37.53;31.53;;;;;;;;;;6267192;28;24411;-73
2024/01/27 15:25:32;;;;;;;38.47;31.73;;;;;;;;;;6264149;28;24432;-73
2024/01/27 15:28:34;;;;;;;37.70;30.55;;;;;;;;;;6263807;28;24431;-74
2024/01/27 15:31:35;;;;;;;41.53;34.40;;;;;;;;;;6268600;28;24419;-74
2024/01/27 15:34:37;;;;;;;115.20;81.35;;;;;;;;;;6273036;28;24428;-74
2024/01/27 15:37:40;;;;;;;95.00;62.30;;;;;;;;;;6271634;28;24420;-74
2024/01/27 15:40:45;;;;;;;129.70;80.00;;;;;;;;;;6269259;28;25045;-74
2024/01/27 15:43:49;;;;;;;86.80;56.15;;;;;;;;;;6272707;28;24419;-75
2024/01/27 15:46:50;;;;;;;52.42;38.95;;;;;;;;;;6265624;28;24475;-78
2024/01/27 15:49:56;;;;;;;48.30;36.90;;;;;;;;;;6264796;28;24833;-78
2024/01/27 15:53:00;;;;;;;47.13;36.43;;;;;;;;;;6264812;28;24496;-78
2024/01/27 15:56:01;;;;;;;49.55;38.30;;;;;;;;;;6266309;28;24427;-78
2024/01/27 15:59:03;;;;;;;50.38;38.25;;;;;;;;;;6262236;28;24419;-78
2024/01/27 16:02:04;;;;;;;49.97;38.90;;;;;;;;;;6264998;28;24424;-78
2024/01/27 16:05:06;;;;;;;49.80;38.30;;;;;;;;;;6263015;28;24427;-78
2024/01/27 16:08:10;;;;;;;49.93;38.07;;;;;;;;;;6265309;28;25374;-78
2024/01/27 16:11:12;;;;;;;50.58;38.20;;;;;;;;;;6265203;28;24502;-78
2024/01/27 16:14:13;;;;;;;52.85;39.25;;;;;;;;;;6267932;28;24422;-77
2024/01/27 16:17:15;;;;;;;55.10;40.65;;;;;;;;;;6270555;28;24829;-78
2024/01/27 16:20:17;;;;;;;56.42;41.83;;;;;;;;;;6266905;28;24435;-79
2024/01/27 16:23:20;;;;;;;60.92;43.97;;;;;;;;;;6271979;28;24450;-79
2024/01/27 16:26:22;;;;;;;57.80;42.42;;;;;;;;;;6271282;28;24424;-78
2024/01/27 16:29:24;;;;;;;61.63;45.30;;;;;;;;;;6268940;28;24489;-79
2024/01/27 16:32:25;;;;;;;60.47;44.45;;;;;;;;;;6268977;28;24435;-77
2024/01/27 16:35:27;;;;;;;59.20;44.17;;;;;;;;;;6268911;28;24416;-79
2024/01/27 16:38:30;;;;;;;59.38;43.42;;;;;;;;;;6271547;28;24827;-77
2024/01/27 16:41:32;;;;;;;60.47;44.30;;;;;;;;;;6271280;28;24434;-78
2024/01/27 16:44:34;;;;;;;56.67;43.83;;;;;;;;;;6268749;28;24465;-79
2024/01/27 16:47:35;;;;;;;61.38;44.50;;;;;;;;;;6270481;28;24411;-77
2024/01/27 16:50:37;;;;;;;57.63;42.67;;;;;;;;;;6302572;28;24427;-77
2024/01/27 16:53:41;;;;;;;58.95;42.97;;;;;;;;;;6267531;28;24430;-78
2024/01/27 16:56:42;;;;;;;57.80;44.00;;;;;;;;;;6269535;28;24435;-74
2024/01/27 16:59:46;;;;;;;60.05;43.92;;;;;;;;;;6267396;28;24809;-73
2024/01/27 17:02:48;;;;;;;59.92;42.88;;;;;;;;;;6272317;28;24812;-74
2024/01/27 17:05:52;;;;;;;60.03;43.28;;;;;;;;;;6269868;28;24419;-74
2024/01/27 17:08:55;;;;;;;59.75;43.97;;;;;;;;;;6273890;28;24697;-74
2024/01/27 17:11:57;;;;;;;61.00;44.75;;;;;;;;;;6268986;28;24434;-73
2024/01/27 17:14:59;;;;;;;64.80;45.47;;;;;;;;;;6268836;28;24478;-75
2024/01/27 17:18:00;;;;;;;63.23;46.37;;;;;;;;;;6269252;28;24443;-74
2024/01/27 17:21:03;;;;;;;62.07;44.30;;;;;;;;;;6268962;28;24502;-76
2024/01/27 17:24:11;;;;;;;60.72;45.22;;;;;;;;;;6269394;28;24587;-74
2024/01/27 17:27:14;;;;;;;62.15;45.92;;;;;;;;;;6272606;28;24946;-73
2024/01/27 17:30:17;;;;;;;63.28;45.90;;;;;;;;;;6267652;28;24816;-74
2024/01/27 17:33:21;;;;;;;62.00;44.92;;;;;;;;;;6268673;28;24434;-76
2024/01/27 17:36:22;;;;;;;63.13;45.90;;;;;;;;;;6270321;28;24420;-75
2024/01/27 17:39:25;;;;;;;63.20;45.42;;;;;;;;;;6265967;28;24474;-74